Time;durP1;ratioP1;P1;durP2;ratioP2;P2;SDS_P1;SDS_P2;PMS_P1;PMS_P2;Temp;Humidity;BMP_temperature;BMP_pressure;BME280_temperature;BME280_humidity;BME280_pressure;Samples;Min_cycle;Max_cycle;Signal;HPM_P1;HPM_P2
2022/06/07 00:02:10;;;;;;;;;;;23.90;45.30;;;;;;8333966;28;20037;-41
2022/06/07 00:06:10;;;;;;;2.75;1.48;;;23.90;45.20;;;;;;8333068;28;19917;-41
2022/06/07 00:10:11;;;;;;;1.73;1.35;;;23.90;45.30;;;;;;8332742;28;20132;-41
2022/06/07 00:14:11;;;;;;;1.65;1.55;;;23.90;45.30;;;;;;8332966;28;20040;-41
2022/06/07 00:18:12;;;;;;;1.75;1.52;;;23.90;45.30;;;;;;8331111;28;20030;-41
2022/06/07 00:22:13;;;;;;;;;;;23.80;45.20;;;;;;8332736;28;20045;-41
2022/06/07 00:26:14;;;;;;;1.73;1.63;;;23.80;45.20;;;;;;8332603;28;19913;-40
2022/06/07 00:30:15;;;;;;;1.58;1.38;;;23.80;45.30;;;;;;8331747;28;20053;-40
2022/06/07 00:34:15;;;;;;;;;;;23.80;45.30;;;;;;8332777;28;20049;-41
2022/06/07 00:38:16;;;;;;;2.30;1.80;;;23.80;45.30;;;;;;8331956;28;19921;-41
2022/06/07 00:42:17;;;;;;;2.25;1.88;;;23.80;45.30;;;;;;8331409;28;20097;-42
2022/06/07 00:46:17;;;;;;;2.65;1.90;;;23.80;45.30;;;;;;8332025;28;20483;-41
2022/06/07 00:50:29;;;;;;;6.15;2.03;;;23.80;45.30;;;;;;8331581;28;20547;-41
2022/06/07 00:54:32;;;;;;;2.75;2.08;;;23.80;45.30;;;;;;8331329;28;20041;-41
2022/06/07 00:58:33;;;;;;;2.05;1.85;;;23.80;45.30;;;;;;8331237;28;20030;-41
2022/06/07 01:02:33;;;;;;;2.30;2.10;;;23.80;45.30;;;;;;8331057;28;20056;-41
2022/06/07 01:10:55;;;;;;;2.22;2.03;;;23.70;45.20;;;;;;8329995;28;20064;-41
2022/06/07 01:14:56;;;;;;;2.53;2.10;;;23.70;45.20;;;;;;8331079;28;20045;-41
2022/06/07 01:18:56;;;;;;;1.80;1.67;;;23.80;45.30;;;;;;8330297;28;20502;-41
2022/06/07 01:22:57;;;;;;;3.15;2.10;;;23.70;45.20;;;;;;8330597;28;20038;-41
2022/06/07 01:26:57;;;;;;;2.40;1.97;;;23.70;45.20;;;;;;8330615;28;20052;-40
2022/06/07 01:30:58;;;;;;;2.27;1.93;;;23.70;45.20;;;;;;8329552;28;20284;-41
2022/06/07 01:34:58;;;;;;;2.33;2.10;;;23.70;45.20;;;;;;8330621;28;20338;-41
2022/06/07 01:43:18;;;;;;;2.10;1.83;;;23.70;45.10;;;;;;8329851;28;20280;-41
2022/06/07 01:47:30;;;;;;;2.40;2.20;;;23.70;45.10;;;;;;8330104;28;20502;-41
2022/06/07 01:51:30;;;;;;;2.75;2.20;;;23.70;45.10;;;;;;8329396;28;20481;-42
2022/06/07 01:55:30;;;;;;;3.90;2.50;;;23.70;45.10;;;;;;8330166;28;20037;-42
2022/06/07 01:59:32;;;;;;;3.30;2.23;;;23.70;45.00;;;;;;8329655;28;20033;-41
2022/06/07 02:03:33;;;;;;;2.85;2.00;;;23.60;45.00;;;;;;8329178;28;20721;-42
2022/06/07 02:07:52;;;;;;;2.50;2.00;;;23.60;45.00;;;;;;8314361;28;20045;-42
2022/06/07 02:11:52;;;;;;;2.58;2.28;;;23.60;45.00;;;;;;8327384;28;20061;-42
2022/06/07 02:15:53;;;;;;;2.38;2.03;;;23.60;45.00;;;;;;8296359;28;20062;-41
2022/06/07 02:19:53;;;;;;;3.80;2.05;;;23.60;45.00;;;;;;8297106;28;20069;-42
2022/06/07 02:23:54;;;;;;;3.17;2.17;;;23.60;45.10;;;;;;8296738;28;20411;-42
2022/06/07 02:27:55;;;;;;;2.58;2.05;;;23.60;45.00;;;;;;8296183;28;20283;-42
2022/06/07 02:32:00;;;;;;;2.42;1.90;;;23.60;45.00;;;;;;8296697;28;20567;-42
2022/06/07 02:36:01;;;;;;;3.22;2.35;;;23.60;45.10;;;;;;8296683;28;20487;-41
2022/06/07 02:40:02;;;;;;;3.08;2.05;;;23.60;45.50;;;;;;8296384;28;20037;-41
2022/06/07 02:44:02;;;;;;;2.70;2.17;;;23.60;45.10;;;;;;8300896;28;20038;-41
2022/06/07 02:48:03;;;;;;;2.70;2.38;;;23.50;45.00;;;;;;8302694;28;20034;-41
2022/06/07 02:52:04;;;;;;;;;;;23.50;45.10;;;;;;8302393;28;20149;-41
2022/06/07 02:56:05;;;;;;;2.53;1.90;;;23.50;45.00;;;;;;8302570;28;19909;-42
2022/06/07 03:00:07;;;;;;;2.38;1.88;;;23.50;45.00;;;;;;8302602;28;20491;-40
2022/06/07 03:04:08;;;;;;;3.20;2.30;;;23.50;45.10;;;;;;8301895;28;20173;-41
2022/06/07 03:08:08;;;;;;;3.07;2.00;;;23.50;45.20;;;;;;8302040;28;20046;-42
2022/06/07 03:12:09;;;;;;;4.20;2.38;;;23.40;45.10;;;;;;8301861;28;20435;-42
2022/06/07 03:16:09;;;;;;;3.25;2.00;;;23.40;45.20;;;;;;8301642;28;20033;-42
2022/06/07 03:20:11;;;;;;;2.00;1.80;;;23.40;45.10;;;;;;8301724;28;20066;-42
2022/06/07 03:24:11;;;;;;;2.55;1.88;;;23.40;45.10;;;;;;8301070;28;20281;-42
2022/06/07 03:28:12;;;;;;;3.72;2.20;;;23.40;45.10;;;;;;8301790;28;20030;-42
2022/06/07 03:32:12;;;;;;;2.88;1.88;;;23.40;45.20;;;;;;8301483;28;20495;-42
2022/06/07 03:36:25;;;;;;;2.87;2.10;;;23.40;45.10;;;;;;8301001;28;20029;-42
2022/06/07 03:40:44;;;;;;;2.33;1.88;;;23.40;45.20;;;;;;8301282;28;20269;-42
2022/06/07 03:44:48;;;;;;;2.65;2.13;;;23.40;45.70;;;;;;8328698;28;20059;-42
2022/06/07 03:48:49;;;;;;;2.88;2.28;;;23.40;45.20;;;;;;8333098;28;20030;-41
2022/06/07 03:52:50;;;;;;;2.35;2.05;;;23.40;45.30;;;;;;8333256;28;20607;-42
2022/06/07 03:56:50;;;;;;;4.00;1.88;;;23.40;45.20;;;;;;8333215;28;20029;-42
2022/06/07 04:00:55;;;;;;;2.35;1.63;;;23.40;45.10;;;;;;8333020;28;20026;-42
2022/06/07 04:04:55;;;;;;;2.38;2.17;;;23.40;45.20;;;;;;8333240;28;20041;-42
2022/06/07 04:08:56;;;;;;;2.17;1.97;;;23.40;45.20;;;;;;8332770;28;20036;-42
2022/06/07 04:12:57;;;;;;;2.40;1.95;;;23.30;45.20;;;;;;8331362;28;20038;-42
2022/06/07 04:16:57;;;;;;;2.80;2.00;;;23.30;45.20;;;;;;8332618;28;20132;-42
2022/06/07 04:20:59;;;;;;;2.35;2.03;;;23.30;45.10;;;;;;8332704;28;20036;-42
2022/06/07 04:24:59;;;;;;;2.92;2.05;;;23.30;45.20;;;;;;8331883;28;20046;-41
2022/06/07 04:29:00;;;;;;;2.40;1.97;;;23.30;45.20;;;;;;8332186;28;20056;-42
2022/06/07 04:33:00;;;;;;;2.17;1.98;;;23.30;45.20;;;;;;8332239;28;20080;-42
2022/06/07 04:37:01;;;;;;;2.63;2.08;;;23.30;45.20;;;;;;8331485;28;20037;-42
2022/06/07 04:41:10;;;;;;;2.47;2.20;;;23.30;45.20;;;;;;8332144;28;20037;-42
2022/06/07 04:45:15;;;;;;;2.10;1.90;;;23.30;45.20;;;;;;8331454;28;20264;-42
2022/06/07 04:49:16;;;;;;;2.22;1.95;;;23.30;45.20;;;;;;8331755;28;20057;-42
2022/06/07 04:53:16;;;;;;;2.27;1.90;;;23.30;45.20;;;;;;8331428;28;20316;-42
2022/06/07 04:57:17;;;;;;;2.00;1.77;;;23.30;45.20;;;;;;8330797;28;20311;-42
2022/06/07 05:01:20;;;;;;;2.57;2.10;;;23.30;45.20;;;;;;8331330;28;20056;-42
2022/06/07 05:05:21;;;;;;;2.67;2.03;;;23.30;45.20;;;;;;8330850;28;20121;-42
2022/06/07 05:09:24;;;;;;;3.15;2.30;;;23.30;45.20;;;;;;8330551;28;20056;-42
2022/06/07 05:13:25;;;;;;;2.92;2.20;;;23.30;45.20;;;;;;8331144;28;20033;-42
2022/06/07 05:17:26;;;;;;;2.30;2.10;;;23.30;45.20;;;;;;8330718;28;20500;-41
2022/06/07 05:21:26;;;;;;;3.25;2.05;;;23.20;45.10;;;;;;8330343;28;20105;-41
2022/06/07 05:25:27;;;;;;;3.25;2.17;;;23.30;45.20;;;;;;8330595;28;20045;-41
2022/06/07 05:29:44;;;;;;;2.27;1.80;;;23.20;45.20;;;;;;8330209;28;20079;-41
2022/06/07 05:33:44;;;;;;;2.75;2.03;;;23.20;45.20;;;;;;8329801;28;20522;-42
2022/06/07 05:37:45;;;;;;;2.37;2.00;;;23.20;45.20;;;;;;8330397;28;20063;-42
2022/06/07 05:41:45;;;;;;;2.22;2.03;;;23.30;45.20;;;;;;8330387;28;20104;-42
2022/06/07 05:45:48;;;;;;;2.67;2.03;;;23.30;45.20;;;;;;8329625;28;20040;-42
2022/06/07 05:49:48;;;;;;;2.53;2.10;;;23.20;45.20;;;;;;8330005;28;20128;-42
2022/06/07 05:53:52;;;;;;;2.40;2.20;;;23.20;45.10;;;;;;8329763;28;20502;-42
2022/06/07 05:57:54;;;;;;;3.15;2.00;;;23.20;45.20;;;;;;8329210;28;20124;-42
2022/06/07 06:01:55;;;;;;;3.28;2.50;;;23.20;45.20;;;;;;8329723;28;20025;-41
2022/06/07 06:05:55;;;;;;;3.37;2.70;;;23.20;45.20;;;;;;8329571;28;20068;-41
2022/06/07 06:14:15;;;;;;;6.32;3.55;;;23.20;45.20;;;;;;8329249;28;20824;-41
2022/06/07 06:18:16;;;;;;;5.13;3.70;;;23.20;45.20;;;;;;8331983;28;20030;-41
2022/06/07 06:22:16;;;;;;;4.88;3.33;;;23.20;45.10;;;;;;8335945;28;20030;-41
2022/06/07 06:26:19;;;;;;;4.25;3.35;;;23.30;45.20;;;;;;8335965;28;20041;-41
2022/06/07 06:30:20;;;;;;;5.30;3.65;;;23.20;45.10;;;;;;8335211;28;20052;-41
2022/06/07 06:34:20;;;;;;;5.95;3.97;;;23.20;45.10;;;;;;8335664;28;20037;-41
2022/06/07 06:38:22;;;;;;;5.22;3.67;;;23.20;45.20;;;;;;8335759;28;20038;-41
2022/06/07 06:42:23;;;;;;;4.20;3.20;;;23.20;45.20;;;;;;8335211;28;20108;-41
2022/06/07 06:46:32;;;;;;;3.80;2.83;;;23.20;45.10;;;;;;8335650;28;20042;-40
2022/06/07 06:50:34;;;;;;;4.10;3.03;;;23.30;45.20;;;;;;8335118;28;20048;-41
2022/06/07 06:54:35;;;;;;;3.97;3.17;;;23.20;45.10;;;;;;8334620;28;20402;-41
2022/06/07 06:58:35;;;;;;;;;;;23.20;45.20;;;;;;8335650;28;20394;-41
2022/06/07 07:02:36;;;;;;;3.10;2.77;;;23.20;45.10;;;;;;8334007;28;19937;-41
2022/06/07 07:06:37;;;;;;;4.13;2.80;;;23.20;45.20;;;;;;8334806;28;20037;-41
2022/06/07 07:10:38;;;;;;;3.55;2.90;;;23.20;45.20;;;;;;8311113;28;20056;-41
2022/06/07 07:14:38;;;;;;;2.83;2.50;;;23.20;45.20;;;;;;8301691;28;20038;-42
2022/06/07 07:18:39;;;;;;;5.23;3.60;;;23.20;45.20;;;;;;8301237;28;20634;-40
2022/06/07 07:22:40;;;;;;;3.42;2.60;;;23.20;45.10;;;;;;8301802;28;20288;-41
2022/06/07 07:26:43;;;;;;;3.23;2.50;;;23.20;45.00;;;;;;8301524;28;20041;-41
2022/06/07 07:30:44;;;;;;;4.68;2.50;;;23.30;45.00;;;;;;8300130;28;20050;-42
2022/06/07 07:34:44;;;;;;;3.63;2.70;;;23.20;45.00;;;;;;8300872;28;20064;-41
2022/06/07 07:38:45;;;;;;;4.22;3.03;;;23.30;45.00;;;;;;8301193;28;20531;-41
2022/06/07 07:42:46;;;;;;;4.10;3.35;;;23.30;44.90;;;;;;8300829;28;20042;-41
2022/06/07 07:46:47;;;;;;;4.82;3.50;;;23.30;44.90;;;;;;8301111;28;20125;-41
2022/06/07 07:50:47;;;;;;;;;;;23.30;44.90;;;;;;8301156;28;20578;-41
2022/06/07 07:54:48;;;;;;;6.50;4.17;;;23.30;44.90;;;;;;8300288;28;19921;-41
2022/06/07 07:58:50;;;;;;;4.60;3.63;;;23.30;44.80;;;;;;8300617;28;20065;-41
2022/06/07 08:02:52;;;;;;;5.18;3.80;;;23.30;44.90;;;;;;8300747;28;20041;-40
2022/06/07 08:06:52;;;;;;;5.18;3.78;;;23.30;44.80;;;;;;8300423;28;20057;-41
2022/06/07 08:10:54;;;;;;;5.77;4.10;;;23.30;44.80;;;;;;8300093;28;20545;-40
2022/06/07 08:14:55;;;;;;;6.03;4.10;;;23.30;44.80;;;;;;8300018;28;20026;-40
2022/06/07 08:18:56;;;;;;;5.10;3.92;;;23.30;44.80;;;;;;8299439;28;20037;-41
2022/06/07 08:22:57;;;;;;;4.90;3.42;;;23.30;44.80;;;;;;8299826;28;20407;-42
2022/06/07 08:26:57;;;;;;;6.47;4.35;;;23.30;44.70;;;;;;8299668;28;20030;-41
2022/06/07 08:30:58;;;;;;;4.33;3.57;;;23.30;44.70;;;;;;8298884;28;20065;-41
2022/06/07 08:39:20;;;;;;;4.93;3.67;;;23.40;44.60;;;;;;8297945;28;20061;-41
2022/06/07 08:43:23;;;;;;;7.43;3.75;;;23.40;44.70;;;;;;8299641;28;20034;-42
2022/06/07 08:47:33;;;;;;;7.18;3.70;;;23.40;44.60;;;;;;8299446;28;20030;-41
2022/06/07 08:51:53;;;;;;;4.88;3.60;;;23.40;44.60;;;;;;8298455;28;20077;-41
2022/06/07 08:55:57;;;;;;;3.73;3.20;;;23.40;44.60;;;;;;8298824;28;20048;-41
2022/06/07 09:00:14;;;;;;;5.57;3.55;;;23.40;44.60;;;;;;8298668;28;20261;-42
2022/06/07 09:04:29;;;;;;;5.10;3.00;;;23.40;44.50;;;;;;8298231;28;20044;-41
2022/06/07 09:08:42;;;;;;;3.88;2.70;;;23.40;44.60;;;;;;8298627;28;20065;-41
2022/06/07 09:13:02;;;;;;;3.70;3.13;;;23.40;44.60;;;;;;8297822;28;20057;-40
2022/06/07 09:17:08;;;;;;;4.25;2.78;;;23.40;44.60;;;;;;8326358;28;20046;-41
2022/06/07 09:21:19;;;;;;;4.28;2.85;;;23.40;44.60;;;;;;8330773;28;20038;-42
2022/06/07 09:25:28;;;;;;;3.47;2.90;;;23.40;44.50;;;;;;8330380;28;20065;-41
2022/06/07 09:29:35;;;;;;;3.95;3.08;;;23.50;44.50;;;;;;8330705;28;20050;-42
2022/06/07 09:33:48;;;;;;;3.60;2.33;;;23.50;44.50;;;;;;8330227;28;20124;-41
2022/06/07 09:38:04;;;;;;;3.47;2.42;;;23.50;44.50;;;;;;8330439;28;20128;-41
2022/06/07 09:42:13;;;;;;;3.35;2.45;;;23.50;44.50;;;;;;8330267;28;20041;-40
2022/06/07 09:46:25;;;;;;;3.33;2.58;;;23.50;44.50;;;;;;8329917;28;20076;-41
2022/06/07 09:50:34;;;;;;;2.90;2.28;;;23.50;44.50;;;;;;8329579;28;20048;-40
2022/06/07 09:54:40;;;;;;;2.80;2.22;;;23.50;44.50;;;;;;8329377;28;20096;-41
2022/06/07 09:59:12;;;;;;;2.40;2.20;;;23.50;44.60;;;;;;8330296;28;20064;-41
2022/06/07 10:03:39;;;;;;;2.35;1.85;;;23.50;44.60;;;;;;8329501;28;20045;-41
2022/06/07 10:07:50;;;;;;;2.55;2.13;;;23.50;44.60;;;;;;8329871;28;20458;-41
2022/06/07 10:12:09;;;;;;;2.53;2.13;;;23.50;44.70;;;;;;8328243;28;20049;-41
2022/06/07 10:16:35;;;;;;;3.03;1.70;;;23.50;44.70;;;;;;8329238;28;20108;-41
2022/06/07 10:20:56;;;;;;;2.88;1.90;;;23.50;44.70;;;;;;8329665;28;20106;-41
2022/06/07 10:25:09;;;;;;;2.50;2.00;;;23.60;44.70;;;;;;8321392;28;20038;-41
2022/06/07 10:29:31;;;;;;;3.20;1.88;;;23.60;44.70;;;;;;8329377;28;20035;-41
2022/06/07 10:33:44;;;;;;;2.47;2.03;;;23.60;44.60;;;;;;8329033;28;20637;-41
2022/06/07 10:38:15;;;;;;;2.55;2.05;;;23.60;44.70;;;;;;8329157;28;20064;-42
2022/06/07 10:42:41;;;;;;;3.60;2.00;;;23.60;44.60;;;;;;8328754;28;20033;-41
2022/06/07 10:46:43;;;;;;;2.20;1.67;;;23.60;44.60;;;;;;8329068;28;20042;-41
2022/06/07 10:52:20;;;;;;;2.70;1.80;;;23.60;44.60;;;;;;8329122;28;20050;-41
2022/06/07 10:55:35;;;;;;;3.53;1.88;;;23.70;44.60;;;;;;8328669;28;20034;-41
2022/06/07 10:59:38;;;;;;;2.10;1.75;;;23.70;44.60;;;;;;8328785;28;20079;-41
2022/06/07 11:09:19;;;;;;;2.45;2.00;;;23.70;44.60;;;;;;8330658;28;20053;-41
2022/06/07 11:13:43;;;;;;;2.92;2.17;;;23.70;44.60;;;;;;8334444;28;20063;-41
2022/06/07 11:17:49;;;;;;;3.83;2.70;;;23.70;44.60;;;;;;8292863;28;20060;-41
2022/06/07 11:21:55;;;;;;;3.75;2.70;;;23.80;44.60;;;;;;8301153;28;20038;-41
2022/06/07 11:26:06;;;;;;;3.38;2.78;;;23.70;44.60;;;;;;8301502;28;20092;-41
2022/06/07 11:30:36;;;;;;;3.50;2.80;;;23.80;44.60;;;;;;8301521;28;20045;-41
2022/06/07 11:34:37;;;;;;;5.75;2.85;;;23.80;44.70;;;;;;8301214;28;20076;-41
2022/06/07 11:39:02;;;;;;;3.17;2.40;;;23.80;44.70;;;;;;8301439;28;20022;-41
2022/06/07 11:43:03;;;;;;;3.80;2.80;;;23.80;44.80;;;;;;8300690;28;20038;-41
2022/06/07 11:47:09;;;;;;;3.75;2.97;;;23.80;44.70;;;;;;8301190;28;20073;-41
2022/06/07 11:51:15;;;;;;;3.03;2.42;;;23.80;44.70;;;;;;8300706;28;20049;-41
2022/06/07 11:55:18;;;;;;;3.03;2.55;;;23.80;44.70;;;;;;8300864;28;20038;-41
2022/06/07 11:59:18;;;;;;;2.92;2.60;;;23.80;44.70;;;;;;8300768;28;20052;-41
2022/06/07 12:03:29;;;;;;;2.40;2.03;;;23.80;44.70;;;;;;8299885;28;20046;-41
2022/06/07 12:07:47;;;;;;;2.60;2.05;;;23.90;44.70;;;;;;8300421;28;20052;-41
2022/06/07 12:11:47;;;;;;;2.90;2.50;;;23.90;45.30;;;;;;8300239;28;20125;-41
2022/06/07 12:15:51;;;;;;;3.47;2.40;;;23.90;44.70;;;;;;8299742;28;20038;-41
2022/06/07 12:19:52;;;;;;;3.05;2.40;;;24.00;44.70;;;;;;8299869;28;20311;-41
2022/06/07 12:24:11;;;;;;;1.73;1.63;;;24.00;44.70;;;;;;8300103;28;20034;-41
2022/06/07 12:28:22;;;;;;;2.83;1.83;;;24.00;44.60;;;;;;8299336;28;20042;-40
2022/06/07 12:32:31;;;;;;;1.73;1.63;;;24.00;44.60;;;;;;8299630;28;20057;-41
2022/06/07 12:36:41;;;;;;;2.22;1.65;;;24.00;44.60;;;;;;8298989;28;20474;-40
2022/06/07 12:40:45;;;;;;;2.10;1.60;;;24.00;44.60;;;;;;8299409;28;20034;-40
2022/06/07 12:44:57;;;;;;;2.50;1.70;;;24.00;44.60;;;;;;8299360;28;20061;-40
2022/06/07 12:48:59;;;;;;;1.83;1.40;;;24.00;44.60;;;;;;8298607;28;20045;-40
2022/06/07 12:52:59;;;;;;;;;;;24.10;44.60;;;;;;8299209;28;20133;-40
2022/06/07 12:57:06;;;;;;;1.47;1.23;;;24.00;44.60;;;;;;8298735;28;19945;-41
2022/06/07 13:01:21;;;;;;;1.95;1.30;;;24.00;44.70;;;;;;8298274;28;20092;-40
2022/06/07 13:05:33;;;;;;;1.40;1.30;;;24.00;44.80;;;;;;8298911;28;20038;-42
2022/06/07 13:09:34;;;;;;;2.92;1.75;;;24.00;44.90;;;;;;8298163;28;20045;-42
2022/06/07 13:13:38;;;;;;;4.40;2.92;;;24.00;45.00;;;;;;8326041;28;20034;-42
2022/06/07 13:17:51;;;;;;;3.25;2.70;;;24.00;45.00;;;;;;8330929;28;20059;-42
2022/06/07 13:22:03;;;;;;;6.63;4.53;;;24.00;45.40;;;;;;8330152;28;20049;-42
2022/06/07 13:26:12;;;;;;;7.82;5.15;;;24.00;45.40;;;;;;8330187;28;20119;-42
2022/06/07 13:30:23;;;;;;;8.68;5.32;;;23.90;45.50;;;;;;8330214;28;20048;-42
2022/06/07 13:34:36;;;;;;;9.25;6.32;;;23.90;45.70;;;;;;8330732;28;20045;-42
2022/06/07 13:38:50;;;;;;;11.43;7.18;;;23.90;45.60;;;;;;8330127;28;20491;-41
2022/06/07 13:43:17;;;;;;;11.48;8.07;;;23.90;45.70;;;;;;8329542;28;20092;-41
2022/06/07 13:47:36;;;;;;;12.02;7.80;;;23.90;45.70;;;;;;8329912;28;20040;-41
2022/06/07 13:56:04;;;;;;;11.30;8.43;;;23.90;45.90;;;;;;8329865;28;20062;-41
2022/06/07 14:00:07;;;;;;;14.20;8.80;;;23.90;45.80;;;;;;8329972;28;20325;-41
2022/06/07 14:04:31;;;;;;;11.45;7.90;;;23.90;46.00;;;;;;8328842;28;20498;-41
2022/06/07 14:08:33;;;;;;;12.02;8.05;;;23.90;45.80;;;;;;8329652;28;20043;-40
2022/06/07 14:12:33;;;;;;;13.20;8.70;;;23.90;45.80;;;;;;8328958;28;20406;-40
2022/06/07 14:16:42;;;;;;;12.07;8.25;;;23.90;45.60;;;;;;8329271;28;20030;-41
2022/06/07 14:20:43;;;;;;;12.85;8.70;;;23.90;45.50;;;;;;8329169;28;20029;-41
2022/06/07 14:24:45;;;;;;;12.30;7.57;;;24.00;45.60;;;;;;8328967;28;20478;-41
2022/06/07 14:28:46;;;;;;;15.10;8.60;;;23.90;45.50;;;;;;8329218;28;20057;-41
2022/06/07 14:32:51;;;;;;;11.40;7.70;;;24.00;45.50;;;;;;8328937;28;20046;-41
2022/06/07 14:36:52;;;;;;;12.23;8.00;;;24.00;45.60;;;;;;8328651;28;20037;-41
2022/06/07 14:40:52;;;;;;;11.27;7.88;;;24.00;45.50;;;;;;8334981;28;20030;-40
2022/06/07 14:44:53;;;;;;;10.75;7.85;;;24.00;45.50;;;;;;8335914;28;20045;-41
2022/06/07 14:49:16;;;;;;;24.52;22.00;;;24.00;45.50;;;;;;8335048;28;20113;-41
2022/06/07 14:53:17;;;;;;;17.98;16.15;;;24.00;45.50;;;;;;8335247;28;20037;-41
2022/06/07 14:57:28;;;;;;;16.48;13.75;;;24.10;45.60;;;;;;8334530;28;20033;-40
2022/06/07 15:01:48;;;;;;;13.88;12.38;;;24.10;45.60;;;;;;8335288;28;20080;-41
2022/06/07 15:05:51;;;;;;;12.70;11.10;;;24.00;45.60;;;;;;8335240;28;20065;-42
2022/06/07 15:09:53;;;;;;;12.88;10.15;;;24.10;45.60;;;;;;8334335;28;20041;-42
2022/06/07 15:13:54;;;;;;;10.93;9.48;;;24.10;45.60;;;;;;8334693;28;20087;-41
2022/06/07 15:17:57;;;;;;;10.32;8.18;;;24.10;45.60;;;;;;8334478;28;20033;-41
2022/06/07 15:21:59;;;;;;;16.92;15.10;;;24.10;45.60;;;;;;8333332;28;20045;-41
2022/06/07 15:25:59;;;;;;;44.15;38.05;;;24.10;45.60;;;;;;8334303;28;20029;-41
2022/06/07 15:30:00;;;;;;;46.60;40.65;;;24.10;45.60;;;;;;8333959;28;20076;-41
2022/06/07 15:34:06;;;;;;;33.95;30.30;;;24.10;45.70;;;;;;8333624;28;20435;-42
2022/06/07 15:38:09;;;;;;;27.13;24.15;;;24.10;45.60;;;;;;8334245;28;20033;-41
2022/06/07 15:46:28;;;;;;;21.73;18.98;;;24.10;45.60;;;;;;8333424;28;20398;-40
2022/06/07 15:50:30;;;;;;;21.55;19.13;;;24.10;45.60;;;;;;8333337;28;20049;-41
2022/06/07 15:54:31;;;;;;;21.20;17.60;;;24.10;45.80;;;;;;8333027;28;20046;-40
2022/06/07 16:02:52;;;;;;;19.55;16.65;;;24.10;45.60;;;;;;8333379;28;20407;-40
2022/06/07 16:06:52;;;;;;;18.70;15.55;;;24.10;45.60;;;;;;8333291;28;20038;-41
2022/06/07 16:10:53;;;;;;;18.40;16.13;;;24.20;45.80;;;;;;8323036;28;20046;-43
2022/06/07 16:14:53;;;;;;;18.95;16.95;;;24.20;45.80;;;;;;8300011;28;20038;-42
2022/06/07 16:18:55;;;;;;;20.00;16.02;;;24.10;45.60;;;;;;8299699;28;20030;-41
2022/06/07 16:22:56;;;;;;;20.27;16.63;;;24.10;45.80;;;;;;8299822;28;20056;-42
2022/06/07 16:26:56;;;;;;;21.73;17.83;;;24.10;45.90;;;;;;8299791;28;20038;-40
2022/06/07 16:35:16;;;;;;;23.45;17.95;;;24.10;46.00;;;;;;8299539;28;20060;-41
2022/06/07 16:39:18;;;;;;;22.92;17.67;;;24.10;46.10;;;;;;8298887;28;20042;-40
2022/06/07 16:47:40;;;;;;;22.80;18.27;;;24.10;46.20;;;;;;8299044;28;20116;-41
2022/06/07 16:51:41;;;;;;;23.63;17.92;;;24.10;46.20;;;;;;8298383;28;20080;-40
2022/06/07 16:55:43;;;;;;;23.67;17.80;;;24.10;46.10;;;;;;8299100;28;20046;-40
2022/06/07 16:59:44;;;;;;;26.27;18.48;;;24.10;46.20;;;;;;8298638;28;20363;-41
2022/06/07 17:03:46;;;;;;;25.13;18.17;;;24.10;46.20;;;;;;8297532;28;20033;-41
2022/06/07 17:07:46;;;;;;;24.33;18.70;;;24.10;46.10;;;;;;8298565;28;20808;-41
2022/06/07 17:11:49;;;;;;;20.83;17.27;;;24.10;45.90;;;;;;8298476;28;20042;-41
2022/06/07 17:15:50;;;;;;;23.90;17.40;;;24.10;46.10;;;;;;8298212;28;20265;-40
2022/06/07 17:19:52;;;;;;;23.17;17.83;;;24.10;46.00;;;;;;8298108;28;20042;-40
2022/06/07 17:23:53;;;;;;;23.65;18.00;;;24.10;46.00;;;;;;8298060;28;20100;-41
2022/06/07 17:27:53;;;;;;;22.52;16.90;;;24.10;46.00;;;;;;8297254;28;20038;-41
2022/06/07 17:31:54;;;;;;;20.35;15.73;;;24.10;46.10;;;;;;8297875;28;20068;-41
2022/06/07 17:35:55;;;;;;;22.50;17.38;;;24.10;46.20;;;;;;8297836;28;20034;-41
2022/06/07 17:39:55;;;;;;;20.50;15.57;;;24.10;46.10;;;;;;8297021;28;20521;-43
2022/06/07 17:43:56;;;;;;;24.47;18.57;;;24.10;46.10;;;;;;8297475;28;20056;-41
2022/06/07 17:47:57;;;;;;;19.40;15.07;;;24.10;46.00;;;;;;8297323;28;20041;-41
2022/06/07 17:51:57;;;;;;;20.35;15.90;;;24.10;46.30;;;;;;8297013;28;20044;-41
2022/06/07 17:55:58;;;;;;;20.08;15.38;;;24.10;46.40;;;;;;8297214;28;20038;-41
2022/06/07 17:59:59;;;;;;;21.83;14.13;;;24.00;46.30;;;;;;8297187;28;20034;-41
2022/06/07 18:03:59;;;;;;;19.48;14.88;;;24.10;46.50;;;;;;8296749;28;20529;-41
2022/06/07 18:08:00;;;;;;;19.85;14.32;;;24.10;46.30;;;;;;8297222;28;20112;-40
2022/06/07 18:12:01;;;;;;;19.63;15.30;;;24.00;46.30;;;;;;8299247;28;20097;-40
2022/06/07 18:16:02;;;;;;;19.98;14.95;;;24.10;46.30;;;;;;8307243;28;20038;-41
2022/06/07 18:20:03;;;;;;;16.98;13.77;;;24.00;46.40;;;;;;8307735;28;20068;-40
2022/06/07 18:24:04;;;;;;;19.08;14.43;;;24.00;46.30;;;;;;8307683;28;20091;-40
2022/06/07 18:28:04;;;;;;;18.25;14.82;;;24.10;46.40;;;;;;8307175;28;20065;-41
2022/06/07 18:32:05;;;;;;;15.77;13.18;;;24.00;46.20;;;;;;8307097;28;20038;-40
2022/06/07 18:36:07;;;;;;;17.38;13.57;;;24.00;46.30;;;;;;8307481;28;20057;-41
2022/06/07 18:40:08;;;;;;;16.73;13.32;;;24.00;46.20;;;;;;8306892;28;20038;-40
2022/06/07 18:44:09;;;;;;;16.45;12.75;;;24.00;46.20;;;;;;8307255;28;20045;-40
2022/06/07 18:48:10;;;;;;;16.85;12.98;;;24.00;46.30;;;;;;8307255;28;20033;-40
2022/06/07 18:52:13;;;;;;;14.70;12.15;;;24.00;46.20;;;;;;8307319;28;20414;-40
2022/06/07 18:56:15;;;;;;;13.93;11.80;;;24.00;46.30;;;;;;8307247;28;20034;-40
2022/06/07 19:00:23;;;;;;;16.60;12.95;;;24.00;46.40;;;;;;8306668;28;20034;-40
2022/06/07 19:04:23;;;;;;;15.82;12.55;;;24.00;46.20;;;;;;8307359;28;20042;-41
2022/06/07 19:08:24;;;;;;;14.43;11.18;;;24.00;46.40;;;;;;8307256;28;20030;-42
2022/06/07 19:12:25;;;;;;;15.20;11.95;;;24.00;46.30;;;;;;8305860;28;20038;-41
2022/06/07 19:16:28;;;;;;;15.75;12.80;;;24.00;46.30;;;;;;8307143;28;20054;-40
2022/06/07 19:20:29;;;;;;;14.50;12.05;;;23.90;46.30;;;;;;8306989;28;20395;-41
2022/06/07 19:24:30;;;;;;;16.60;12.68;;;23.90;46.20;;;;;;8303316;28;20120;-42
2022/06/07 19:28:31;;;;;;;13.43;12.02;;;23.90;46.20;;;;;;8301978;28;20039;-41
2022/06/07 19:32:31;;;;;;;;;;;23.90;46.20;;;;;;8302285;28;20521;-42
2022/06/07 19:36:32;;;;;;;16.13;13.30;;;23.90;46.20;;;;;;8301131;28;19913;-40
2022/06/07 19:40:33;;;;;;;15.45;12.70;;;23.90;46.20;;;;;;8301563;28;20069;-40
2022/06/07 19:44:34;;;;;;;16.65;13.68;;;23.90;46.10;;;;;;8301333;28;20033;-40
2022/06/07 19:48:34;;;;;;;16.70;13.10;;;23.90;46.00;;;;;;8300733;28;20042;-41
2022/06/07 19:52:37;;;;;;;14.52;12.80;;;23.90;45.90;;;;;;8301089;28;20042;-41
2022/06/07 19:56:38;;;;;;;16.70;13.52;;;23.90;45.90;;;;;;8300660;28;20034;-40
2022/06/07 20:00:39;;;;;;;16.95;14.25;;;23.80;45.80;;;;;;8300275;28;20038;-41
2022/06/07 20:04:39;;;;;;;16.35;13.90;;;23.90;45.80;;;;;;8300327;28;20398;-41
2022/06/07 20:08:40;;;;;;;14.48;12.55;;;23.80;45.80;;;;;;8300534;28;20497;-41
2022/06/07 20:12:40;;;;;;;16.98;13.68;;;23.80;45.70;;;;;;8299952;28;20172;-41
2022/06/07 20:16:41;;;;;;;14.73;12.55;;;23.80;45.70;;;;;;8300081;28;20030;-41
2022/06/07 20:20:42;;;;;;;14.98;12.18;;;23.80;45.70;;;;;;8300060;28;20465;-41
2022/06/07 20:24:42;;;;;;;14.77;13.18;;;23.80;45.70;;;;;;8299479;28;20034;-41
2022/06/07 20:28:43;;;;;;;14.03;12.37;;;23.80;45.70;;;;;;8299647;28;20513;-41
2022/06/07 20:32:43;;;;;;;13.60;12.10;;;23.80;45.60;;;;;;8299721;28;20295;-41
2022/06/07 20:36:44;;;;;;;14.63;12.18;;;23.80;45.60;;;;;;8297933;28;20272;-41
2022/06/07 20:40:49;;;;;;;14.10;11.80;;;23.80;45.50;;;;;;8299436;28;20034;-41
2022/06/07 20:44:49;;;;;;;13.88;11.57;;;23.80;45.50;;;;;;8299082;28;20049;-41
2022/06/07 20:48:49;;;;;;;12.33;11.03;;;23.70;45.40;;;;;;8298656;28;20052;-41
2022/06/07 20:52:50;;;;;;;13.32;11.70;;;23.70;45.40;;;;;;8299340;28;20046;-41
2022/06/07 20:56:51;;;;;;;12.48;10.40;;;23.70;45.40;;;;;;8298813;28;20124;-41
2022/06/07 21:00:51;;;;;;;12.27;10.27;;;23.70;45.40;;;;;;8298430;28;20038;-41
2022/06/07 21:04:53;;;;;;;13.98;11.15;;;23.70;45.30;;;;;;8298983;28;20285;-41
2022/06/07 21:08:53;;;;;;;14.32;9.95;;;23.70;45.30;;;;;;8298436;28;20080;-40
2022/06/07 21:12:54;;;;;;;10.18;8.57;;;23.70;45.20;;;;;;8298105;28;20426;-40
2022/06/07 21:16:55;;;;;;;9.55;8.50;;;23.70;45.10;;;;;;8298247;28;20491;-41
2022/06/07 21:20:56;;;;;;;11.10;9.60;;;23.70;45.00;;;;;;8298068;28;20046;-41
2022/06/07 21:24:56;;;;;;;11.32;9.10;;;23.60;45.00;;;;;;8297632;28;20450;-41
2022/06/07 21:28:57;;;;;;;9.65;8.27;;;23.70;45.00;;;;;;8297793;28;20034;-41
2022/06/07 21:32:58;;;;;;;9.70;7.88;;;23.60;44.90;;;;;;8297955;28;20499;-41
2022/06/07 21:36:58;;;;;;;9.38;8.23;;;23.60;44.90;;;;;;8297275;28;20045;-41
2022/06/07 21:40:59;;;;;;;9.73;8.43;;;23.60;44.90;;;;;;8297504;28;20041;-40
2022/06/07 21:44:59;;;;;;;9.68;7.97;;;23.60;44.90;;;;;;8297580;28;20446;-40
2022/06/07 21:49:01;;;;;;;8.90;7.90;;;23.60;44.80;;;;;;8296610;28;20088;-41